Circle City /New/ Airport


Codes: PACR/IRC
Name: Circle City /New/ Airport
City: Circle
Country: United States
Elevation: 613 ft.
Wikipedia:

Photos at Circle City /New/ Airport


   Photos courtesy of SpottingLog. You can add your own sightings and photos by signing up for a free trial today.



No photos found.

Weather at Circle City /New/ Airport


Time (UTC)DescriptionTempratureWindCloud coverageVisibilityPressureHumidity
26-Jun-2024 00:00Scattered Clouds25°C7 mph, N26%10000m1014hPa29%
26-Jun-2024 03:00Scattered Clouds26°C4 mph, N31%10000m1013hPa27%
26-Jun-2024 06:00Scattered Clouds22°C2 mph, N33%10000m1012hPa42%
26-Jun-2024 09:00Broken Clouds17°C2 mph, SE73%10000m1013hPa57%
26-Jun-2024 12:00Scattered Clouds15°C2 mph, SE41%10000m1013hPa61%
26-Jun-2024 15:00Clear Sky20°C2 mph, S5%10000m1013hPa48%
26-Jun-2024 18:00Clear Sky25°C7 mph, NE3%10000m1012hPa34%
26-Jun-2024 21:00Clear Sky27°C9 mph, NE5%10000m1011hPa25%
27-Jun-2024 00:00Clear Sky28°C7 mph, NE9%10000m1009hPa22%
27-Jun-2024 03:00Scattered Clouds29°C7 mph, NE26%10000m1008hPa21%
27-Jun-2024 06:00Scattered Clouds24°C9 mph, E49%10000m1008hPa37%
27-Jun-2024 09:00Broken Clouds18°C7 mph, E71%10000m1010hPa49%
27-Jun-2024 12:00Scattered Clouds16°C4 mph, E37%10000m1010hPa55%
27-Jun-2024 15:00Clear Sky20°C4 mph, E0%10000m1009hPa44%
27-Jun-2024 18:00Clear Sky25°C11 mph, E0%10000m1008hPa29%
27-Jun-2024 21:00Clear Sky28°C9 mph, E0%10000m1007hPa24%
28-Jun-2024 00:00Clear Sky29°C9 mph, NE1%10000m1005hPa21%
28-Jun-2024 03:00Few Clouds29°C13 mph, NE14%10000m1004hPa21%
28-Jun-2024 06:00Scattered Clouds24°C11 mph, E26%10000m1005hPa30%
28-Jun-2024 09:00Broken Clouds16°C7 mph, S51%10000m1006hPa63%
28-Jun-2024 12:00Scattered Clouds14°C4 mph, S38%10000m1007hPa75%
28-Jun-2024 15:00Broken Clouds19°C4 mph, SW78%10000m1008hPa59%
28-Jun-2024 18:00Broken Clouds24°C2 mph, N69%10000m1007hPa40%
28-Jun-2024 21:00Broken Clouds27°C4 mph, NE57%10000m1007hPa25%
29-Jun-2024 00:00Scattered Clouds28°C2 mph, N45%10000m1006hPa20%
29-Jun-2024 03:00Scattered Clouds29°C4 mph, N50%10000m1005hPa20%
29-Jun-2024 06:00Broken Clouds22°C7 mph, NW75%10000m1006hPa50%
29-Jun-2024 09:00Overcast Clouds16°C2 mph, SW91%10000m1008hPa73%
29-Jun-2024 12:00Overcast Clouds16°C4 mph, SW89%10000m1009hPa73%
29-Jun-2024 15:00Overcast Clouds19°C2 mph, S100%10000m1008hPa58%
29-Jun-2024 18:00Overcast Clouds22°C2 mph, N100%10000m1008hPa48%
29-Jun-2024 21:00Overcast Clouds25°C4 mph, N100%10000m1007hPa40%
30-Jun-2024 00:00Overcast Clouds27°C4 mph, N100%10000m1006hPa34%
30-Jun-2024 03:00Overcast Clouds27°C2 mph, SW100%10000m1005hPa34%
30-Jun-2024 06:00Light Rain19°C4 mph, SW100%10000m1006hPa70%
30-Jun-2024 09:00Light Rain16°C7 mph, S77%10000m1007hPa81%
30-Jun-2024 12:00Light Rain15°C4 mph, S89%10000m1007hPa84%
30-Jun-2024 15:00Light Rain19°C2 mph, SW57%10000m1007hPa70%
30-Jun-2024 18:00Broken Clouds24°C4 mph, NW55%10000m1007hPa48%
30-Jun-2024 21:00Scattered Clouds27°C7 mph, N27%10000m1006hPa35%